createdAt,value
2018-08-07T00:00:41.455Z,19.44
2018-08-07T00:03:11.685Z,19.39
2018-08-07T00:05:40.702Z,19.37
2018-08-07T00:08:09.784Z,19.31
2018-08-07T00:10:38.728Z,19.24
2018-08-07T00:13:07.681Z,19.19
2018-08-07T00:15:36.644Z,19.15
2018-08-07T00:18:05.661Z,19.09
2018-08-07T00:20:34.607Z,19.04
2018-08-07T00:23:03.551Z,19.02
2018-08-07T00:25:32.844Z,18.93
2018-08-07T00:28:02.125Z,18.87
2018-08-07T00:30:31.071Z,18.82
2018-08-07T00:33:00.031Z,18.74
2018-08-07T00:35:28.944Z,18.72
2018-08-07T00:37:57.931Z,18.68
2018-08-07T00:40:26.906Z,18.59
2018-08-07T00:42:55.880Z,18.57
2018-08-07T00:45:24.841Z,18.54
2018-08-07T00:47:53.989Z,18.52
2018-08-07T00:50:22.922Z,18.51
2018-08-07T00:52:52.289Z,18.49
2018-08-07T00:55:21.584Z,18.42
2018-08-07T00:57:50.986Z,18.30
2018-08-07T01:00:19.943Z,18.24
2018-08-07T01:02:48.864Z,18.23
2018-08-07T01:05:18.573Z,18.15
2018-08-07T01:07:48.540Z,18.16
2018-08-07T01:10:18.565Z,18.13
2018-08-07T01:12:47.661Z,18.08
2018-08-07T01:15:19.561Z,18.08
2018-08-07T01:17:48.672Z,18.08
2018-08-07T01:20:22.473Z,18.04
2018-08-07T01:22:51.572Z,17.99
2018-08-07T01:25:22.859Z,17.97
2018-08-07T01:27:51.802Z,17.95
2018-08-07T01:30:24.401Z,17.92
2018-08-07T01:32:54.194Z,17.99
2018-08-07T01:35:23.718Z,17.96
2018-08-07T01:37:52.672Z,17.97
2018-08-07T01:40:21.624Z,17.98
2018-08-07T01:42:50.556Z,17.90
2018-08-07T01:45:19.576Z,17.82
2018-08-07T01:47:48.521Z,17.72
2018-08-07T01:50:19.216Z,17.72
2018-08-07T01:52:48.185Z,17.62
2018-08-07T01:55:22.750Z,17.54
2018-08-07T01:57:51.709Z,17.51
2018-08-07T02:00:20.832Z,17.43
2018-08-07T02:02:50.324Z,17.37
2018-08-07T02:05:19.509Z,17.35
2018-08-07T02:07:48.448Z,17.31
2018-08-07T02:10:18.537Z,17.35
2018-08-07T02:12:47.562Z,17.29
2018-08-07T02:15:17.037Z,17.22
2018-08-07T02:17:45.957Z,17.12
2018-08-07T02:20:16.152Z,17.05
2018-08-07T02:22:45.666Z,17.00
2018-08-07T02:25:16.196Z,17.01
2018-08-07T02:27:45.707Z,17.09
2018-08-07T02:30:15.289Z,17.05
2018-08-07T02:32:44.290Z,17.05
2018-08-07T02:35:14.435Z,17.01
2018-08-07T02:37:44.451Z,16.99
2018-08-07T02:40:14.098Z,17.02
2018-08-07T02:42:43.470Z,17.03
2018-08-07T02:45:14.412Z,17.01
2018-08-07T02:47:44.000Z,16.95
2018-08-07T02:50:14.729Z,16.94
2018-08-07T02:52:43.711Z,16.92
2018-08-07T02:55:12.831Z,16.82
2018-08-07T02:57:42.425Z,16.83
2018-08-07T03:00:18.815Z,16.85
2018-08-07T03:02:47.925Z,16.79
2018-08-07T03:05:17.561Z,16.77
2018-08-07T03:07:46.696Z,16.73
2018-08-07T03:10:15.668Z,16.65
2018-08-07T03:12:44.586Z,16.65
2018-08-07T03:15:16.042Z,16.65
2018-08-07T03:17:46.045Z,16.64
2018-08-07T03:20:15.084Z,16.67
2018-08-07T03:22:44.013Z,16.70
2018-08-07T03:25:13.747Z,16.68
2018-08-07T03:27:43.773Z,16.71
2018-08-07T03:30:15.540Z,16.66
2018-08-07T03:32:44.961Z,16.64
2018-08-07T03:35:13.904Z,16.64
2018-08-07T03:37:43.209Z,16.63
2018-08-07T03:40:14.477Z,16.70
2018-08-07T03:42:43.543Z,16.66
2018-08-07T03:45:17.067Z,16.69
2018-08-07T03:47:46.694Z,16.71
2018-08-07T03:50:15.659Z,16.79
2018-08-07T03:52:44.662Z,16.83
2018-08-07T03:55:15.608Z,16.88
2018-08-07T03:57:45.223Z,16.99
2018-08-07T04:00:16.151Z,17.05
2018-08-07T04:02:45.251Z,17.12
2018-08-07T04:05:14.355Z,17.18
2018-08-07T04:07:43.307Z,17.20
2018-08-07T04:10:14.018Z,17.25
2018-08-07T04:12:43.002Z,17.26
2018-08-07T04:15:13.604Z,17.28
2018-08-07T04:17:43.130Z,17.29
2018-08-07T04:20:14.621Z,17.40
2018-08-07T04:22:43.601Z,17.45
2018-08-07T04:25:12.617Z,17.44
2018-08-07T04:27:41.691Z,17.49
2018-08-07T04:30:14.162Z,17.53
2018-08-07T04:32:43.565Z,17.62
2018-08-07T04:35:13.057Z,17.68
2018-08-07T04:37:42.038Z,17.74
2018-08-07T04:40:11.345Z,17.84
2018-08-07T04:42:40.968Z,17.89
2018-08-07T04:45:14.254Z,17.95
2018-08-07T04:47:43.855Z,18.06
2018-08-07T04:50:12.794Z,18.14
2018-08-07T04:52:42.022Z,18.22
2018-08-07T04:55:17.327Z,18.33
2018-08-07T04:57:46.274Z,18.41
2018-08-07T05:00:16.778Z,18.54
2018-08-07T05:02:46.499Z,18.63
2018-08-07T05:05:15.682Z,18.74
2018-08-07T05:07:44.764Z,18.81
2018-08-07T05:10:15.475Z,18.98
2018-08-07T05:12:45.038Z,19.16
2018-08-07T05:15:14.220Z,19.31
2018-08-07T05:17:44.495Z,19.48
2018-08-07T05:20:13.368Z,19.63
2018-08-07T05:22:42.289Z,19.74
2018-08-07T05:25:11.843Z,19.86
2018-08-07T05:27:40.934Z,20.02
2018-08-07T05:30:11.460Z,20.14
2018-08-07T05:32:40.409Z,20.30
2018-08-07T05:35:10.042Z,20.41
2018-08-07T05:37:38.973Z,20.57
2018-08-07T05:40:08.961Z,20.68
2018-08-07T05:42:37.866Z,20.84
2018-08-07T05:45:08.116Z,20.97
2018-08-07T05:47:36.989Z,21.12
2018-08-07T05:50:08.523Z,21.30
2018-08-07T05:52:37.319Z,21.58
2018-08-07T05:55:06.467Z,22.01
2018-08-07T05:57:35.492Z,22.90
2018-08-07T06:00:07.421Z,24.15
2018-08-07T06:02:36.362Z,25.51
2018-08-07T06:05:09.920Z,26.50
2018-08-07T06:07:43.559Z,28.18
2018-08-07T06:10:15.271Z,28.53
2018-08-07T06:12:52.708Z,29.39
2018-08-07T06:15:22.412Z,30.07
2018-08-07T06:17:53.883Z,29.77
2018-08-07T06:20:28.612Z,30.55
2018-08-07T06:22:58.742Z,31.24
2018-08-07T06:25:30.385Z,31.53
2018-08-07T06:28:00.178Z,30.95
2018-08-07T06:30:30.512Z,29.06
2018-08-07T06:32:59.378Z,29.85
2018-08-07T06:35:28.272Z,28.82
2018-08-07T06:37:57.208Z,28.71
2018-08-07T06:40:26.168Z,29.05
2018-08-07T06:42:55.123Z,29.87
2018-08-07T06:45:23.972Z,29.24
2018-08-07T06:47:52.878Z,29.47
2018-08-07T06:50:21.834Z,29.38
2018-08-07T06:52:51.131Z,29.36
2018-08-07T06:55:20.132Z,29.70
2018-08-07T06:57:49.107Z,30.01
2018-08-07T07:00:20.282Z,29.79
2018-08-07T07:02:49.320Z,29.32
2018-08-07T07:05:18.301Z,29.33
2018-08-07T07:07:47.271Z,29.72
2018-08-07T07:10:16.180Z,29.68
2018-08-07T07:12:45.975Z,30.74
2018-08-07T07:15:15.862Z,31.67
2018-08-07T07:17:45.993Z,31.60
2018-08-07T07:20:16.108Z,30.15
2018-08-07T07:22:46.263Z,31.05
2018-08-07T07:25:15.240Z,30.58
2018-08-07T07:27:44.256Z,30.39
2018-08-07T07:30:16.159Z,30.18
2018-08-07T07:32:46.396Z,30.45
2018-08-07T07:35:16.100Z,30.61
2018-08-07T07:37:45.026Z,30.92
2018-08-07T07:40:13.989Z,31.39
2018-08-07T07:42:43.102Z,30.93
2018-08-07T07:45:14.115Z,31.64
2018-08-07T07:47:43.029Z,31.30
2018-08-07T07:50:14.266Z,31.34
2018-08-07T07:52:43.589Z,31.59
2018-08-07T07:55:13.713Z,31.24
2018-08-07T07:57:42.768Z,31.25
2018-08-07T08:00:28.664Z,31.16
2018-08-07T08:02:57.595Z,31.32
2018-08-07T08:05:27.036Z,31.16
2018-08-07T08:07:56.364Z,32.71
2018-08-07T08:10:25.484Z,31.76
2018-08-07T08:12:54.384Z,32.27
2018-08-07T08:15:23.309Z,31.50
2018-08-07T08:17:52.285Z,31.64
2018-08-07T08:20:23.806Z,31.24
2018-08-07T08:22:53.404Z,31.52
2018-08-07T08:25:22.313Z,32.06
2018-08-07T08:27:51.387Z,33.20
2018-08-07T08:30:20.312Z,32.88
2018-08-07T08:32:49.216Z,32.73
2018-08-07T08:35:19.107Z,33.53
2018-08-07T08:37:48.613Z,33.18
2018-08-07T08:40:22.289Z,34.20
2018-08-07T08:42:52.553Z,34.28
2018-08-07T08:45:24.162Z,34.11
2018-08-07T08:47:56.320Z,33.72
2018-08-07T08:50:25.258Z,34.72
2018-08-07T08:52:54.223Z,33.97
2018-08-07T08:55:23.148Z,34.05
2018-08-07T08:57:52.082Z,34.39
2018-08-07T09:00:27.759Z,34.11
2018-08-07T09:02:57.857Z,34.61
2018-08-07T09:05:26.795Z,34.45
2018-08-07T09:07:55.680Z,34.14
2018-08-07T09:10:26.437Z,34.18
2018-08-07T09:12:55.779Z,33.76
2018-08-07T09:15:24.693Z,34.92
2018-08-07T09:17:53.662Z,35.52
2018-08-07T09:20:24.607Z,35.86
2018-08-07T09:22:53.551Z,35.24
2018-08-07T09:25:23.775Z,35.72
2018-08-07T09:27:52.672Z,35.84
2018-08-07T09:30:23.048Z,35.64
2018-08-07T09:32:52.658Z,35.42
2018-08-07T09:35:22.418Z,35.09
2018-08-07T09:37:51.360Z,34.68
2018-08-07T09:40:21.262Z,34.85
2018-08-07T09:42:53.047Z,35.17
2018-08-07T09:45:28.720Z,34.78
2018-08-07T09:47:57.712Z,35.21
2018-08-07T09:50:26.653Z,36.43
2018-08-07T09:52:55.676Z,36.11
2018-08-07T09:55:24.605Z,36.42
2018-08-07T09:57:53.534Z,36.59
2018-08-07T10:00:27.996Z,36.77
2018-08-07T10:02:59.604Z,36.61
2018-08-07T10:05:30.022Z,37.14
2018-08-07T10:07:58.760Z,37.54
2018-08-07T10:10:27.795Z,37.69
2018-08-07T10:12:56.716Z,36.68
2018-08-07T10:15:25.620Z,37.40
2018-08-07T10:17:54.614Z,36.98
2018-08-07T10:20:23.495Z,36.84
2018-08-07T10:22:52.425Z,36.93
2018-08-07T10:25:21.503Z,37.19
2018-08-07T10:27:50.662Z,36.82
2018-08-07T10:30:22.972Z,36.71
2018-08-07T10:32:52.444Z,36.83
2018-08-07T10:35:21.549Z,35.78
2018-08-07T10:37:50.701Z,36.84
2018-08-07T10:40:22.188Z,37.55
2018-08-07T10:42:51.261Z,37.78
2018-08-07T10:45:21.397Z,38.34
2018-08-07T10:47:52.372Z,37.52
2018-08-07T10:50:25.043Z,37.25
2018-08-07T10:52:54.106Z,36.78
2018-08-07T10:55:23.631Z,37.90
2018-08-07T10:57:53.934Z,38.29
2018-08-07T11:00:25.904Z,38.69
2018-08-07T11:02:55.499Z,37.85
2018-08-07T11:05:25.219Z,38.13
2018-08-07T11:07:54.145Z,39.06
2018-08-07T11:10:23.419Z,37.39
2018-08-07T11:12:52.909Z,36.09
2018-08-07T11:15:28.357Z,36.73
2018-08-07T11:17:58.285Z,37.02
2018-08-07T11:20:27.608Z,36.97
2018-08-07T11:22:58.101Z,37.56
2018-08-07T11:25:27.920Z,37.48
2018-08-07T11:27:56.899Z,37.42
2018-08-07T11:30:26.932Z,37.72
2018-08-07T11:32:57.164Z,37.61
2018-08-07T11:35:26.560Z,38.26
2018-08-07T11:37:59.136Z,38.48
2018-08-07T11:40:28.762Z,37.44
2018-08-07T11:42:58.311Z,36.86
2018-08-07T11:45:31.844Z,36.60
2018-08-07T11:48:00.805Z,36.65
2018-08-07T11:50:31.075Z,37.51
2018-08-07T11:52:59.989Z,36.88
2018-08-07T11:55:29.157Z,37.83
2018-08-07T11:57:58.128Z,38.69
2018-08-07T12:00:34.554Z,37.75
2018-08-07T12:03:03.746Z,39.11
2018-08-07T12:05:32.727Z,38.07
2018-08-07T12:08:01.800Z,38.43
2018-08-07T12:10:30.668Z,37.88
2018-08-07T12:16:04.755Z,37.58
2018-08-07T12:18:34.498Z,36.64
2018-08-07T12:21:04.108Z,37.52
2018-08-07T12:23:33.392Z,38.27
2018-08-07T12:26:02.491Z,38.49
2018-08-07T12:28:32.263Z,38.04
2018-08-07T12:31:01.359Z,37.77
2018-08-07T12:33:34.343Z,37.97
2018-08-07T12:36:03.769Z,38.64
2018-08-07T12:38:39.749Z,38.19
2018-08-07T12:41:09.540Z,37.68
2018-08-07T12:43:38.481Z,38.56
2018-08-07T12:46:38.316Z,38.22
2018-08-07T12:49:07.546Z,38.42
2018-08-07T12:51:37.201Z,38.34
2018-08-07T12:54:06.472Z,37.56
2018-08-07T12:56:37.114Z,38.21
2018-08-07T12:59:06.225Z,38.46
2018-08-07T13:01:36.241Z,38.45
2018-08-07T13:04:06.065Z,38.00
2018-08-07T13:06:37.451Z,38.87
2018-08-07T13:09:09.498Z,38.51
2018-08-07T13:11:38.408Z,37.84
2018-08-07T13:14:07.347Z,37.34
2018-08-07T13:16:36.226Z,37.74
2018-08-07T13:19:05.261Z,38.43
2018-08-07T13:21:34.239Z,39.04
2018-08-07T13:24:03.402Z,38.24
2018-08-07T13:26:32.643Z,38.28
2018-08-07T13:29:01.533Z,39.20
2018-08-07T13:31:30.480Z,39.38
2018-08-07T13:33:59.335Z,38.51
2018-08-07T13:36:28.239Z,38.11
2018-08-07T13:38:57.131Z,38.08
2018-08-07T13:41:26.076Z,37.93
2018-08-07T13:43:54.970Z,38.92
2018-08-07T13:46:23.860Z,39.13
2018-08-07T13:48:52.803Z,39.31
2018-08-07T13:51:22.088Z,39.67
2018-08-07T13:53:51.020Z,39.77
2018-08-07T13:56:20.039Z,39.35
2018-08-07T13:58:48.930Z,39.12
2018-08-07T14:01:18.020Z,38.51
2018-08-07T14:03:46.918Z,37.86
2018-08-07T14:06:15.814Z,37.79
2018-08-07T14:08:44.727Z,38.38
2018-08-07T14:11:14.231Z,37.24
2018-08-07T14:13:43.150Z,36.82
2018-08-07T14:16:12.121Z,37.02
2018-08-07T14:18:41.063Z,37.50
2018-08-07T14:21:09.954Z,38.33
2018-08-07T14:23:38.893Z,38.87
2018-08-07T14:26:07.817Z,38.65
2018-08-07T14:28:36.845Z,39.42
2018-08-07T14:31:06.717Z,39.15
2018-08-07T14:33:35.616Z,39.15
2018-08-07T14:36:04.603Z,39.36
2018-08-07T14:38:33.495Z,39.80
2018-08-07T14:41:03.311Z,40.31
2018-08-07T14:43:32.267Z,38.53
2018-08-07T14:46:01.276Z,38.72
2018-08-07T14:48:59.756Z,38.51
2018-08-07T14:51:28.673Z,38.96
2018-08-07T14:53:57.703Z,38.18
2018-08-07T14:56:26.608Z,38.57
2018-08-07T14:58:55.560Z,37.42
2018-08-07T15:01:24.975Z,37.93
2018-08-07T15:03:55.042Z,37.81
2018-08-07T15:06:25.094Z,37.96
2018-08-07T15:08:54.977Z,38.11
2018-08-07T15:11:25.518Z,38.43
2018-08-07T15:13:55.422Z,39.00
2018-08-07T15:16:24.630Z,38.22
2018-08-07T15:18:53.995Z,37.90
2018-08-07T15:21:22.977Z,37.58
2018-08-07T15:23:51.930Z,37.65
2018-08-07T15:26:20.888Z,38.03
2018-08-07T15:28:49.869Z,37.16
2018-08-07T15:31:18.811Z,37.45
2018-08-07T15:33:47.764Z,36.27
2018-08-07T15:36:16.754Z,35.59
2018-08-07T15:38:45.749Z,36.22
2018-08-07T15:41:18.472Z,36.79
2018-08-07T15:43:47.433Z,36.80
2018-08-07T15:46:16.360Z,36.92
2018-08-07T15:48:46.254Z,36.58
2018-08-07T15:51:16.374Z,36.77
2018-08-07T15:53:45.276Z,36.64
2018-08-07T15:56:16.360Z,35.84
2018-08-07T15:58:46.883Z,36.16
2018-08-07T16:01:16.019Z,36.15
2018-08-07T16:03:47.121Z,36.36
2018-08-07T16:06:16.191Z,36.13
2018-08-07T16:08:45.244Z,36.14
2018-08-07T16:11:14.203Z,35.98
2018-08-07T16:13:43.130Z,35.52
2018-08-07T16:16:12.070Z,35.16
2018-08-07T16:18:40.983Z,34.98
2018-08-07T16:21:10.979Z,34.92
2018-08-07T16:23:40.876Z,35.06
2018-08-07T16:26:10.148Z,35.45
2018-08-07T16:28:39.074Z,35.51
2018-08-07T16:31:08.156Z,35.57
2018-08-07T16:33:37.128Z,35.76
2018-08-07T16:36:06.516Z,35.91
2018-08-07T16:38:35.679Z,35.58
2018-08-07T16:41:05.300Z,35.32
2018-08-07T16:43:34.292Z,35.05
2018-08-07T16:46:03.240Z,34.78
2018-08-07T16:48:32.175Z,34.69
2018-08-07T16:51:01.353Z,34.52
2018-08-07T16:53:30.328Z,34.24
2018-08-07T16:55:59.290Z,34.13
2018-08-07T16:58:28.945Z,33.98
2018-08-07T17:01:03.570Z,33.91
2018-08-07T17:03:32.519Z,33.71
2018-08-07T17:06:01.481Z,33.60
2018-08-07T17:08:30.375Z,33.56
2018-08-07T17:11:08.867Z,33.41
2018-08-07T17:13:38.216Z,33.22
2018-08-07T17:16:07.167Z,33.10
2018-08-07T17:18:36.136Z,33.01
2018-08-07T17:21:05.078Z,32.93
2018-08-07T17:23:34.020Z,32.81
2018-08-07T17:26:02.962Z,32.76
2018-08-07T17:28:31.905Z,32.69
2018-08-07T17:31:03.738Z,32.60
2018-08-07T17:33:33.808Z,32.52
2018-08-07T17:36:03.416Z,32.48
2018-08-07T17:38:32.323Z,32.44
2018-08-07T17:41:01.287Z,32.37
2018-08-07T17:43:30.859Z,32.30
2018-08-07T17:45:59.976Z,32.22
2018-08-07T17:48:29.016Z,32.18
2018-08-07T17:50:57.945Z,32.14
2018-08-07T17:53:26.993Z,32.06
2018-08-07T17:55:55.992Z,31.98
2018-08-07T17:58:25.004Z,31.94
2018-08-07T18:00:53.934Z,31.85
2018-08-07T18:03:22.904Z,31.77
2018-08-07T18:05:52.591Z,31.66
2018-08-07T18:08:22.491Z,31.56
2018-08-07T18:10:52.305Z,31.48
2018-08-07T18:13:21.242Z,31.40
2018-08-07T18:15:50.163Z,31.31
2018-08-07T18:18:19.203Z,31.21
2018-08-07T18:20:48.269Z,31.12
2018-08-07T18:23:17.200Z,31.03
2018-08-07T18:25:46.160Z,30.92
2018-08-07T18:28:15.083Z,30.80
2018-08-07T18:30:44.130Z,30.72
2018-08-07T18:33:13.064Z,30.60
2018-08-07T18:35:42.006Z,30.53
2018-08-07T18:38:11.021Z,30.43
2018-08-07T18:40:40.127Z,30.35
2018-08-07T18:43:09.670Z,30.24
2018-08-07T18:45:39.041Z,30.19
2018-08-07T18:48:08.024Z,30.07
2018-08-07T18:50:36.999Z,30.03
2018-08-07T18:53:06.116Z,30.00
2018-08-07T18:55:35.065Z,29.93
2018-08-07T18:58:04.026Z,29.90
2018-08-07T19:00:32.977Z,29.84
2018-08-07T19:03:01.921Z,29.78
2018-08-07T19:05:30.852Z,29.64
2018-08-07T19:07:59.837Z,29.58
2018-08-07T19:10:28.937Z,29.47
2018-08-07T19:12:57.920Z,29.40
2018-08-07T19:15:27.094Z,29.27
2018-08-07T19:17:57.194Z,29.20
2018-08-07T19:20:26.903Z,29.11
2018-08-07T19:22:55.995Z,28.96
2018-08-07T19:25:24.944Z,28.86
2018-08-07T19:27:53.928Z,28.83
2018-08-07T19:30:27.013Z,28.77
2018-08-07T19:32:56.067Z,28.70
2018-08-07T19:35:25.064Z,28.53
2018-08-07T19:37:54.069Z,28.36
2018-08-07T19:40:23.000Z,28.34
2018-08-07T19:42:52.151Z,28.16
2018-08-07T19:45:21.359Z,28.14
2018-08-07T19:47:50.301Z,27.99
2018-08-07T19:50:21.079Z,27.94
2018-08-07T19:52:50.994Z,27.97
2018-08-07T19:55:21.630Z,27.89
2018-08-07T19:57:50.614Z,27.76
2018-08-07T20:00:25.737Z,27.68
2018-08-07T20:02:55.123Z,27.58
2018-08-07T20:05:24.240Z,27.47
2018-08-07T20:07:54.049Z,27.41
2018-08-07T20:10:23.254Z,27.29
2018-08-07T20:12:52.558Z,27.24
2018-08-07T20:15:23.954Z,27.07
2018-08-07T20:17:53.561Z,27.05
2018-08-07T20:20:22.916Z,26.97
2018-08-07T20:22:51.919Z,26.87
2018-08-07T20:25:21.029Z,26.76
2018-08-07T20:27:50.641Z,26.68
2018-08-07T20:30:21.474Z,26.69
2018-08-07T20:32:51.822Z,26.57
2018-08-07T20:35:20.751Z,26.53
2018-08-07T20:37:49.706Z,26.49
2018-08-07T20:40:21.568Z,26.56
2018-08-07T20:42:50.921Z,26.71
2018-08-07T20:45:20.542Z,26.74
2018-08-07T20:47:49.568Z,26.69
2018-08-07T20:50:20.917Z,26.58
2018-08-07T20:52:50.091Z,26.51
2018-08-07T20:55:19.268Z,26.45
2018-08-07T20:57:48.200Z,26.37
2018-08-07T21:00:20.551Z,26.30
2018-08-07T21:02:50.072Z,26.24
2018-08-07T21:05:19.577Z,26.24
2018-08-07T21:07:48.533Z,26.10
2018-08-07T21:10:22.472Z,26.14
2018-08-07T21:12:51.400Z,26.04
2018-08-07T21:15:20.319Z,25.99
2018-08-07T21:17:49.284Z,26.04
2018-08-07T21:20:19.584Z,26.02
2018-08-07T21:22:48.593Z,25.91
2018-08-07T21:25:19.909Z,25.83
2018-08-07T21:27:50.866Z,25.81
2018-08-07T21:30:21.185Z,25.73
2018-08-07T21:32:50.169Z,25.61
2018-08-07T21:35:19.132Z,25.54
2018-08-07T21:37:48.788Z,25.49
2018-08-07T21:40:19.422Z,25.39
2018-08-07T21:42:49.222Z,25.37
2018-08-07T21:45:18.408Z,25.31
2018-08-07T21:47:47.373Z,25.19
2018-08-07T21:50:18.366Z,25.07
2018-08-07T21:52:47.872Z,24.99
2018-08-07T21:55:17.887Z,24.99
2018-08-07T21:57:46.856Z,24.91
2018-08-07T22:00:21.970Z,24.85
2018-08-07T22:02:51.041Z,24.74
2018-08-07T22:05:20.165Z,24.75
2018-08-07T22:07:49.234Z,24.70
2018-08-07T22:10:19.820Z,24.65
2018-08-07T22:12:49.452Z,24.65
2018-08-07T22:15:19.882Z,24.57
2018-08-07T22:17:53.620Z,24.56
2018-08-07T22:20:22.650Z,24.53
2018-08-07T22:22:51.601Z,24.46
2018-08-07T22:25:20.694Z,24.46
2018-08-07T22:27:49.652Z,24.41
2018-08-07T22:30:22.707Z,24.41
2018-08-07T22:32:51.825Z,24.33
2018-08-07T22:35:20.761Z,24.26
2018-08-07T22:37:49.737Z,24.24
2018-08-07T22:40:18.816Z,24.15
2018-08-07T22:42:47.743Z,24.13
2018-08-07T22:45:17.914Z,24.11
2018-08-07T22:47:47.866Z,24.04
2018-08-07T22:50:18.497Z,24.00
2018-08-07T22:52:47.605Z,23.97
2018-08-07T22:55:18.877Z,23.90
2018-08-07T22:57:47.905Z,23.85
2018-08-07T23:00:18.726Z,23.77
2018-08-07T23:02:47.523Z,23.74
2018-08-07T23:05:17.560Z,23.71
2018-08-07T23:07:46.486Z,23.71
2018-08-07T23:10:19.848Z,23.62
2018-08-07T23:12:49.243Z,23.55
2018-08-07T23:15:20.094Z,23.54
2018-08-07T23:17:49.240Z,23.46
2018-08-07T23:20:20.845Z,23.39
2018-08-07T23:22:53.466Z,23.26
2018-08-07T23:25:22.444Z,23.22
2018-08-07T23:27:51.412Z,23.20
2018-08-07T23:30:21.119Z,23.17
2018-08-07T23:32:50.130Z,23.13
2018-08-07T23:35:19.029Z,23.11
2018-08-07T23:37:47.997Z,23.04
2018-08-07T23:40:16.916Z,22.99
2018-08-07T23:42:46.190Z,22.99
2018-08-07T23:45:16.074Z,22.97
2018-08-07T23:47:44.978Z,22.93
2018-08-07T23:50:14.528Z,22.88
2018-08-07T23:52:43.628Z,22.79
2018-08-07T23:55:13.235Z,22.77
2018-08-07T23:57:42.219Z,22.71
